Time;durP1;ratioP1;P1;durP2;ratioP2;P2;SDS_P1;SDS_P2;PMS_P1;PMS_P2;Temp;Humidity;BMP_temperature;BMP_pressure;BME280_temperature;BME280_humidity;BME280_pressure;Samples;Min_cycle;Max_cycle;Signal;HPM_P1;HPM_P2
2024/01/17 00:00:22;;;;;;;9.90;5.07;;;-1.80;99.90;;;;;;5074869;28;20028;-77
2024/01/17 00:02:48;;;;;;;11.33;5.47;;;-1.80;99.90;;;;;;5074563;28;20023;-78
2024/01/17 00:05:14;;;;;;;14.00;5.53;;;-1.80;99.90;;;;;;5074349;28;20470;-77
2024/01/17 00:07:39;;;;;;;13.63;6.03;;;-1.80;99.90;;;;;;5089721;28;20103;-79
2024/01/17 00:10:06;;;;;;;15.50;6.20;;;-1.70;99.90;;;;;;5093007;28;20020;-77
2024/01/17 00:12:32;;;;;;;16.57;5.60;;;-1.80;99.90;;;;;;5074527;28;20061;-77
2024/01/17 00:14:57;;;;;;;13.30;5.40;;;-1.80;99.90;;;;;;5092941;28;20095;-76
2024/01/17 00:17:23;;;;;;;12.97;6.47;;;-1.80;99.90;;;;;;5074721;28;20038;-76
2024/01/17 00:19:50;;;;;;;13.53;6.67;;;-1.90;99.90;;;;;;5074509;28;20031;-78
2024/01/17 00:22:16;;;;;;;18.47;6.53;;;-2.00;99.90;;;;;;5075122;28;20042;-78
2024/01/17 00:24:42;;;;;;;13.53;5.70;;;-1.90;99.90;;;;;;5074437;28;20016;-78
2024/01/17 00:27:08;;;;;;;15.63;6.20;;;-2.00;99.90;;;;;;5074797;28;20023;-78
2024/01/17 00:29:34;;;;;;;12.13;5.83;;;-1.90;99.90;;;;;;5092224;28;20044;-78
2024/01/17 00:31:59;;;;;;;15.40;6.20;;;-1.90;99.90;;;;;;5093030;28;20566;-79
2024/01/17 00:34:25;;;;;;;12.40;5.83;;;-1.90;99.90;;;;;;5075840;28;20024;-81
2024/01/17 00:36:50;;;;;;;13.93;5.87;;;-1.90;99.90;;;;;;5074537;28;20487;-80
2024/01/17 00:39:16;;;;;;;15.83;6.60;;;-1.90;99.90;;;;;;5074878;28;20206;-79
2024/01/17 00:41:42;;;;;;;13.80;6.03;;;-2.00;99.90;;;;;;5072832;28;20439;-79
2024/01/17 00:44:08;;;;;;;17.03;5.77;;;-2.00;99.90;;;;;;5057046;28;20107;-78
2024/01/17 00:46:33;;;;;;;12.00;5.83;;;-2.00;99.90;;;;;;5057980;28;20059;-76
2024/01/17 00:48:59;;;;;;;14.97;6.57;;;-2.00;99.90;;;;;;5058358;28;20040;-78
2024/01/17 00:51:25;;;;;;;15.07;5.83;;;-2.10;99.90;;;;;;5092025;28;20107;-77
2024/01/17 00:53:53;;;;;;;14.27;6.60;;;-2.00;99.90;;;;;;5075250;28;20024;-78
2024/01/17 00:56:18;;;;;;;9.13;5.23;;;-2.00;99.90;;;;;;5064661;28;20031;-77
2024/01/17 00:58:44;;;;;;;12.57;6.10;;;-1.90;99.90;;;;;;5067912;28;20028;-77
2024/01/17 01:01:09;;;;;;;13.90;6.00;;;-1.90;99.90;;;;;;5058121;28;20032;-78
2024/01/17 01:03:35;;;;;;;12.70;5.97;;;-2.00;99.90;;;;;;5058109;28;20056;-78
2024/01/17 01:06:01;;;;;;;14.10;6.03;;;-2.00;99.90;;;;;;5073264;28;20022;-78
2024/01/17 01:08:26;;;;;;;15.50;5.90;;;-1.90;99.90;;;;;;5078325;28;20035;-78
2024/01/17 01:10:52;;;;;;;11.90;6.10;;;-1.90;99.90;;;;;;5066173;28;20024;-81
2024/01/17 01:13:17;;;;;;;14.80;6.57;;;-1.90;99.90;;;;;;5058490;28;20020;-78
2024/01/17 01:15:43;;;;;;;14.23;6.10;;;-1.80;99.90;;;;;;5059086;28;20021;-78
2024/01/17 01:18:08;;;;;;;17.03;6.40;;;-1.80;99.90;;;;;;5096487;28;20066;-78
2024/01/17 01:20:34;;;;;;;16.10;6.10;;;-1.80;99.90;;;;;;5070207;28;20039;-78
2024/01/17 01:22:59;;;;;;;19.47;7.07;;;-1.80;99.90;;;;;;5075728;28;20365;-78
2024/01/17 01:25:26;;;;;;;17.57;7.23;;;-1.80;99.90;;;;;;5090874;28;20020;-78
2024/01/17 01:27:51;;;;;;;14.23;6.70;;;-1.80;99.90;;;;;;5057863;28;20021;-78
2024/01/17 01:30:17;;;;;;;15.03;6.63;;;-1.80;99.90;;;;;;5063659;28;20032;-77
2024/01/17 01:32:42;;;;;;;17.33;7.37;;;-1.80;99.90;;;;;;5085885;28;20020;-78
2024/01/17 01:35:08;;;;;;;16.03;6.40;;;-1.70;99.90;;;;;;5089020;28;20458;-79
2024/01/17 01:37:33;;;;;;;15.13;6.60;;;-1.80;99.90;;;;;;5075032;28;20492;-84
2024/01/17 01:39:59;;;;;;;14.00;6.60;;;-1.80;99.90;;;;;;5061311;28;20028;-77
2024/01/17 01:42:25;;;;;;;14.00;6.50;;;-1.70;99.90;;;;;;5070270;28;20045;-77
2024/01/17 01:44:50;;;;;;;11.33;6.07;;;-1.70;99.90;;;;;;5068092;28;20016;-79
2024/01/17 01:47:17;;;;;;;15.33;6.00;;;-1.80;99.90;;;;;;5063844;28;20016;-79
2024/01/17 01:49:43;;;;;;;13.20;6.40;;;-1.80;99.90;;;;;;5091509;28;20028;-77
2024/01/17 01:52:09;;;;;;;13.97;6.37;;;-1.80;99.90;;;;;;5062606;28;20019;-78
2024/01/17 01:54:36;;;;;;;12.77;5.90;;;-1.80;99.90;;;;;;5077322;28;20030;-79
2024/01/17 01:57:03;;;;;;;12.10;6.53;;;-1.90;99.90;;;;;;5078284;28;20024;-78
2024/01/17 01:59:30;;;;;;;13.27;6.83;;;-1.90;99.90;;;;;;5078689;28;20028;-78
2024/01/17 02:01:56;;;;;;;14.27;5.60;;;-1.80;99.90;;;;;;5079289;28;20107;-78
2024/01/17 02:04:23;;;;;;;12.83;5.57;;;-1.80;99.90;;;;;;5071069;28;20115;-78
2024/01/17 02:06:50;;;;;;;12.47;5.90;;;-1.70;99.90;;;;;;5057531;28;20071;-78
2024/01/17 02:09:16;;;;;;;12.97;5.57;;;-1.70;99.90;;;;;;5071142;28;20027;-78
2024/01/17 02:11:42;;;;;;;11.20;5.67;;;-1.70;99.90;;;;;;5077785;28;20024;-78
2024/01/17 02:14:09;;;;;;;12.27;5.67;;;-1.60;99.90;;;;;;5090337;28;20508;-77
2024/01/17 02:16:35;;;;;;;18.10;6.00;;;-1.70;99.90;;;;;;5065316;28;20384;-90
2024/01/17 02:19:02;;;;;;;11.97;5.60;;;-1.80;99.90;;;;;;5059535;28;20031;-74
2024/01/17 02:21:29;;;;;;;13.57;5.97;;;-1.70;99.90;;;;;;5075069;28;20476;-74
2024/01/17 02:24:16;;;;;;;15.40;5.93;;;-1.60;99.90;;;;;;5075084;28;20035;-75
2024/01/17 02:26:42;;;;;;;13.93;5.50;;;-1.60;99.90;;;;;;5053581;28;20020;-75
2024/01/17 02:29:08;;;;;;;13.03;5.73;;;-1.60;99.90;;;;;;5056179;28;20040;-75
2024/01/17 02:31:34;;;;;;;14.57;5.77;;;-1.60;99.90;;;;;;5056373;28;20025;-75
2024/01/17 02:34:01;;;;;;;17.50;6.77;;;-1.50;99.90;;;;;;5055913;28;20453;-75
2024/01/17 02:36:26;;;;;;;14.60;6.20;;;-1.50;99.90;;;;;;5074175;28;20028;-74
2024/01/17 02:38:52;;;;;;;15.03;5.90;;;-1.60;99.90;;;;;;5056663;28;20021;-74
2024/01/17 02:41:17;;;;;;;13.07;5.87;;;-1.60;99.90;;;;;;5059553;28;20126;-74
2024/01/17 02:43:43;;;;;;;21.67;6.13;;;-1.60;99.90;;;;;;5075869;28;20101;-75
2024/01/17 02:46:08;;;;;;;15.57;6.50;;;-1.50;99.90;;;;;;5094301;28;20480;-75
2024/01/17 02:48:34;;;;;;;12.67;5.50;;;-1.50;99.90;;;;;;5076147;28;20046;-74
2024/01/17 02:51:00;;;;;;;12.07;5.80;;;-1.50;99.90;;;;;;5093792;28;20024;-74
2024/01/17 02:53:25;;;;;;;12.33;6.03;;;-1.50;99.90;;;;;;5094002;28;20469;-74
2024/01/17 02:55:51;;;;;;;15.93;5.57;;;-1.50;99.90;;;;;;5075693;28;20012;-75
2024/01/17 02:58:16;;;;;;;13.33;5.83;;;-1.50;99.90;;;;;;5093924;28;20058;-74
2024/01/17 03:00:43;;;;;;;12.07;5.70;;;-1.50;99.90;;;;;;5093628;28;20035;-75
2024/01/17 03:03:10;;;;;;;11.60;6.47;;;-1.50;99.90;;;;;;5076134;28;20118;-75
2024/01/17 03:05:37;;;;;;;13.13;6.17;;;-1.60;99.90;;;;;;5075461;28;20024;-74
2024/01/17 03:08:04;;;;;;;13.23;6.47;;;-1.60;99.90;;;;;;5093721;28;20016;-74
2024/01/17 03:10:30;;;;;;;13.03;5.30;;;-1.60;99.90;;;;;;5093839;28;20016;-74
2024/01/17 03:12:56;;;;;;;12.47;5.77;;;-1.50;99.90;;;;;;5075776;28;20027;-75
2024/01/17 03:15:22;;;;;;;14.50;5.30;;;-1.50;99.90;;;;;;5076119;28;20460;-75
2024/01/17 03:17:47;;;;;;;11.97;5.17;;;-1.50;99.90;;;;;;5093354;28;20027;-74
2024/01/17 03:20:13;;;;;;;11.87;5.70;;;-1.40;99.90;;;;;;5094047;28;20419;-74
2024/01/17 03:22:42;;;;;;;13.93;5.97;;;-1.40;99.90;;;;;;5075838;28;20020;-89
2024/01/17 03:25:08;;;;;;;16.67;6.00;;;-1.40;99.90;;;;;;5075711;28;20031;-74
2024/01/17 03:27:34;;;;;;;11.80;5.37;;;-1.50;99.90;;;;;;5075585;28;20028;-74
2024/01/17 03:30:00;;;;;;;15.83;6.03;;;-1.50;99.90;;;;;;5075836;28;20047;-75
2024/01/17 03:32:25;;;;;;;15.80;6.13;;;-1.60;99.90;;;;;;5093997;28;20408;-75
2024/01/17 03:34:51;;;;;;;12.87;5.73;;;-1.60;99.90;;;;;;5075828;28;20368;-75
2024/01/17 03:37:18;;;;;;;10.63;5.20;;;-1.60;99.90;;;;;;5094111;28;20020;-75
2024/01/17 03:39:47;;;;;;;11.67;5.47;;;-1.60;99.90;;;;;;5093975;28;20069;-75
2024/01/17 03:42:15;;;;;;;11.53;5.30;;;-1.50;99.90;;;;;;5075502;28;20067;-75
2024/01/17 03:44:43;;;;;;;8.47;4.57;;;-1.60;99.90;;;;;;5094107;28;20467;-76
2024/01/17 03:47:09;;;;;;;10.33;4.90;;;-1.50;99.90;;;;;;5075997;28;20055;-74
2024/01/17 03:49:34;;;;;;;14.50;5.50;;;-1.40;99.90;;;;;;5075955;28;20032;-74
2024/01/17 03:52:00;;;;;;;10.93;5.00;;;-1.40;99.90;;;;;;5093745;28;20381;-75
2024/01/17 03:54:26;;;;;;;12.90;4.90;;;-1.30;99.90;;;;;;5075844;28;20055;-75
2024/01/17 03:56:51;;;;;;;11.10;5.20;;;-1.40;99.90;;;;;;5075832;28;20027;-75
2024/01/17 03:59:17;;;;;;;12.77;5.37;;;-1.40;99.90;;;;;;5075743;28;20117;-75
2024/01/17 04:01:44;;;;;;;11.37;5.33;;;-1.40;99.90;;;;;;5075285;28;20019;-75
2024/01/17 04:04:10;;;;;;;10.30;5.00;;;-1.30;99.90;;;;;;5075333;28;20369;-74
2024/01/17 04:06:36;;;;;;;14.03;5.30;;;-1.40;99.90;;;;;;5075366;28;20074;-74
2024/01/17 04:09:02;;;;;;;11.53;5.27;;;-1.30;99.90;;;;;;5074928;28;20039;-74
2024/01/17 04:11:27;;;;;;;13.70;5.80;;;-1.30;99.90;;;;;;5075204;28;20511;-74
2024/01/17 04:13:53;;;;;;;11.23;5.53;;;-1.20;99.90;;;;;;5075122;28;20020;-74
2024/01/17 04:16:18;;;;;;;15.53;6.40;;;-1.20;99.90;;;;;;5075479;28;20103;-74
2024/01/17 04:18:44;;;;;;;12.30;6.07;;;-1.20;99.90;;;;;;5094751;28;20077;-74
2024/01/17 04:21:17;;;;;;;11.13;5.73;;;-1.10;99.90;;;;;;5079612;28;20016;-74
2024/01/17 04:23:43;;;;;;;12.07;5.67;;;-1.20;99.90;;;;;;5079462;28;20078;-78
2024/01/17 04:26:08;;;;;;;14.57;6.20;;;-1.30;99.90;;;;;;5079350;28;20449;-74
2024/01/17 04:28:34;;;;;;;10.93;5.73;;;-1.30;99.90;;;;;;5079500;28;20071;-74
2024/01/17 04:31:00;;;;;;;14.77;6.13;;;-1.30;99.90;;;;;;5079235;28;20346;-74
2024/01/17 04:33:25;;;;;;;11.87;5.83;;;-1.20;99.90;;;;;;5097406;28;20484;-74
2024/01/17 04:35:51;;;;;;;13.53;5.77;;;-1.20;99.90;;;;;;5078900;28;20024;-75
2024/01/17 04:38:16;;;;;;;11.53;5.93;;;-1.30;99.90;;;;;;5097417;28;20031;-74
2024/01/17 04:40:42;;;;;;;11.30;5.50;;;-1.20;99.90;;;;;;5079175;28;20016;-74
2024/01/17 04:43:07;;;;;;;11.80;6.10;;;-1.30;99.90;;;;;;5077960;28;20512;-75
2024/01/17 04:45:33;;;;;;;16.27;6.93;;;-1.30;99.90;;;;;;5076967;28;20361;-74
2024/01/17 04:47:59;;;;;;;11.43;6.03;;;-1.20;99.90;;;;;;5058778;28;20028;-75
2024/01/17 04:50:24;;;;;;;10.33;5.33;;;-1.30;99.90;;;;;;5059483;28;20067;-75
2024/01/17 04:52:50;;;;;;;12.67;6.10;;;-1.30;99.90;;;;;;5059088;28;20364;-76
2024/01/17 04:55:15;;;;;;;11.47;6.50;;;-1.30;99.90;;;;;;5076991;28;20027;-75
2024/01/17 04:57:41;;;;;;;14.27;5.70;;;-1.20;99.90;;;;;;5058655;28;20029;-75
2024/01/17 05:00:08;;;;;;;17.37;6.57;;;-1.20;99.90;;;;;;5077109;28;20033;-75
2024/01/17 05:02:34;;;;;;;13.63;5.83;;;-1.20;99.90;;;;;;5058784;28;20024;-74
2024/01/17 05:05:00;;;;;;;12.30;5.80;;;-1.20;99.90;;;;;;5076735;28;20024;-74
2024/01/17 05:07:25;;;;;;;10.67;5.40;;;-1.20;99.90;;;;;;5076635;28;20021;-74
2024/01/17 05:09:51;;;;;;;13.90;6.23;;;-1.20;99.90;;;;;;5058223;28;20032;-75
2024/01/17 05:12:16;;;;;;;9.53;5.20;;;-1.10;99.90;;;;;;5076153;28;20511;-74
2024/01/17 05:14:42;;;;;;;12.57;6.07;;;-1.20;99.90;;;;;;5076165;28;20024;-74
2024/01/17 05:17:08;;;;;;;11.33;6.00;;;-1.20;99.90;;;;;;5075552;28;20441;-74
2024/01/17 05:19:33;;;;;;;13.87;6.43;;;-1.10;99.90;;;;;;5076055;28;20078;-75
2024/01/17 05:21:59;;;;;;;12.57;5.87;;;-1.10;99.90;;;;;;5058017;28;20043;-75
2024/01/17 05:24:25;;;;;;;13.93;5.87;;;-1.10;99.90;;;;;;5058167;28;20052;-74
2024/01/17 05:26:51;;;;;;;17.37;6.50;;;-1.10;99.90;;;;;;5075592;28;20021;-75
2024/01/17 05:29:17;;;;;;;13.47;5.83;;;-1.10;99.90;;;;;;5057840;28;20036;-74
2024/01/17 05:31:42;;;;;;;15.57;6.47;;;-1.00;99.90;;;;;;5075146;28;20454;-74
2024/01/17 05:34:08;;;;;;;14.23;7.17;;;-1.00;99.90;;;;;;5058172;28;20035;-74
2024/01/17 05:36:34;;;;;;;12.83;6.47;;;-1.00;99.90;;;;;;5057897;28;20438;-74
2024/01/17 05:38:59;;;;;;;14.63;6.83;;;-1.00;99.90;;;;;;5056950;28;20434;-75
2024/01/17 05:41:25;;;;;;;12.60;6.17;;;-1.00;99.90;;;;;;5061947;28;20560;-74
2024/01/17 05:43:50;;;;;;;13.93;6.53;;;-0.90;99.90;;;;;;5076983;28;20020;-74
2024/01/17 05:46:16;;;;;;;14.07;7.23;;;-0.90;99.90;;;;;;5077366;28;20028;-74
2024/01/17 05:48:41;;;;;;;13.40;6.67;;;-0.90;99.90;;;;;;5077221;28;20461;-75
2024/01/17 05:51:07;;;;;;;13.07;6.27;;;-0.90;99.90;;;;;;5094869;28;20386;-75
2024/01/17 05:53:33;;;;;;;14.77;7.13;;;-0.90;99.90;;;;;;5077559;28;20024;-76
2024/01/17 05:55:58;;;;;;;15.77;7.60;;;-0.90;99.90;;;;;;5076883;28;20017;-76
2024/01/17 05:58:24;;;;;;;15.63;7.97;;;-0.90;99.90;;;;;;5095351;28;20342;-75
2024/01/17 06:00:49;;;;;;;15.43;7.53;;;-0.90;99.90;;;;;;5094438;28;20069;-76
2024/01/17 06:03:15;;;;;;;17.03;7.60;;;-0.90;99.90;;;;;;5077087;28;20058;-75
2024/01/17 06:05:41;;;;;;;16.67;7.97;;;-0.80;99.90;;;;;;5077072;28;20110;-75
2024/01/17 06:08:06;;;;;;;16.17;8.63;;;-0.80;99.90;;;;;;5094526;28;20046;-75
2024/01/17 06:10:33;;;;;;;16.13;7.40;;;-0.80;99.90;;;;;;5077167;28;20027;-74
2024/01/17 06:12:58;;;;;;;17.87;7.43;;;-0.90;99.90;;;;;;5077193;28;20472;-74
2024/01/17 06:15:24;;;;;;;16.17;7.53;;;-0.90;99.90;;;;;;5095661;28;20017;-74
2024/01/17 06:17:49;;;;;;;17.93;8.03;;;-0.90;99.90;;;;;;5094990;28;20418;-85
2024/01/17 06:20:16;;;;;;;15.20;7.53;;;-0.80;99.90;;;;;;5095449;28;20032;-74
2024/01/17 06:22:42;;;;;;;19.77;8.50;;;-0.80;99.90;;;;;;5077101;28;20024;-74
2024/01/17 06:25:08;;;;;;;16.27;7.90;;;-0.70;99.90;;;;;;5076439;28;20056;-75
2024/01/17 06:27:33;;;;;;;18.23;8.00;;;-0.70;99.90;;;;;;5076506;28;20070;-75
2024/01/17 06:29:59;;;;;;;16.57;8.37;;;-0.70;99.90;;;;;;5075928;28;20085;-75
2024/01/17 06:32:24;;;;;;;15.13;7.70;;;-0.70;99.90;;;;;;5076620;28;20020;-75
2024/01/17 06:34:50;;;;;;;15.90;7.60;;;-0.70;99.90;;;;;;5076191;28;20051;-88
2024/01/17 06:37:16;;;;;;;19.27;7.77;;;-0.70;99.90;;;;;;5076268;28;20027;-75
2024/01/17 06:39:43;;;;;;;17.20;7.97;;;-0.70;99.90;;;;;;5094336;28;20024;-75
2024/01/17 06:42:09;;;;;;;17.13;7.97;;;-0.70;99.90;;;;;;5093109;28;20040;-75
2024/01/17 06:44:35;;;;;;;15.97;8.03;;;-0.70;99.90;;;;;;5094710;28;20024;-75
2024/01/17 06:47:01;;;;;;;16.33;7.57;;;-0.70;99.90;;;;;;5075732;28;20506;-75
2024/01/17 06:49:27;;;;;;;19.43;8.17;;;-0.70;99.90;;;;;;5094007;28;20039;-75
2024/01/17 06:51:52;;;;;;;15.70;7.77;;;-0.60;99.90;;;;;;5076191;28;20046;-75
2024/01/17 06:54:18;;;;;;;18.50;9.10;;;-0.60;99.90;;;;;;5076235;28;20020;-75
2024/01/17 06:56:44;;;;;;;20.30;8.67;;;-0.60;99.90;;;;;;5094255;28;20106;-76
2024/01/17 06:59:10;;;;;;;23.33;10.20;;;-0.70;99.90;;;;;;5093526;28;20032;-76
2024/01/17 07:01:36;;;;;;;17.27;8.77;;;-0.70;99.90;;;;;;5093874;28;20020;-76
2024/01/17 07:04:02;;;;;;;20.17;8.27;;;-0.70;99.90;;;;;;5074917;28;20020;-76
2024/01/17 07:06:28;;;;;;;16.53;8.57;;;-0.70;99.90;;;;;;5075912;28;20074;-75
2024/01/17 07:08:54;;;;;;;17.67;8.47;;;-0.80;99.90;;;;;;5075291;28;20441;-75
2024/01/17 07:11:19;;;;;;;15.33;8.30;;;-0.70;99.90;;;;;;5075674;28;20028;-75
2024/01/17 07:13:45;;;;;;;17.03;8.60;;;-0.80;99.90;;;;;;5075695;28;20029;-74
2024/01/17 07:16:15;;;;;;;22.40;8.70;;;-0.70;99.90;;;;;;5092987;28;20043;-74
2024/01/17 07:18:40;;;;;;;18.23;7.93;;;-0.80;99.90;;;;;;5075652;28;20028;-75
2024/01/17 07:21:07;;;;;;;21.40;9.13;;;-0.70;99.90;;;;;;5075096;28;20031;-74
2024/01/17 07:23:34;;;;;;;17.77;8.80;;;-0.70;99.90;;;;;;5093959;28;20027;-74
2024/01/17 07:26:00;;;;;;;16.97;9.17;;;-0.70;99.90;;;;;;5093270;28;20411;-75
2024/01/17 07:28:25;;;;;;;17.83;8.23;;;-0.70;99.90;;;;;;5075059;28;20036;-74
2024/01/17 07:30:51;;;;;;;18.20;8.43;;;-0.70;99.90;;;;;;5075431;28;20016;-74
2024/01/17 07:33:16;;;;;;;18.97;9.37;;;-0.70;99.90;;;;;;5074762;28;20046;-75
2024/01/17 07:35:42;;;;;;;21.63;9.30;;;-0.70;99.90;;;;;;5074764;28;20044;-75
2024/01/17 07:38:08;;;;;;;19.27;9.40;;;-0.60;99.90;;;;;;5092985;28;20031;-75
2024/01/17 07:40:33;;;;;;;19.53;9.23;;;-0.60;99.90;;;;;;5075130;28;20081;-74
2024/01/17 07:42:59;;;;;;;23.53;9.30;;;-0.60;99.90;;;;;;5074611;28;20109;-75
2024/01/17 07:45:25;;;;;;;17.87;9.13;;;-0.70;99.90;;;;;;5075113;28;20023;-74
2024/01/17 07:47:51;;;;;;;18.70;8.97;;;-0.70;99.90;;;;;;5075184;28;20031;-75
2024/01/17 07:50:17;;;;;;;21.50;9.43;;;-0.70;99.90;;;;;;5074567;28;20028;-75
2024/01/17 07:52:42;;;;;;;20.63;8.97;;;-0.70;99.90;;;;;;5074665;28;20023;-75
2024/01/17 07:55:08;;;;;;;20.73;9.10;;;-0.70;99.90;;;;;;5092412;28;20024;-75
2024/01/17 07:57:34;;;;;;;20.20;8.73;;;-0.60;99.90;;;;;;5074679;28;20028;-75
2024/01/17 08:00:00;;;;;;;18.23;8.53;;;-0.60;99.90;;;;;;5092233;28;20042;-75
2024/01/17 08:02:25;;;;;;;23.33;9.93;;;-0.50;99.90;;;;;;5074896;28;20046;-74
2024/01/17 08:04:52;;;;;;;17.77;9.10;;;-0.50;99.90;;;;;;5075166;28;20459;-75
2024/01/17 08:07:24;;;;;;;19.80;9.80;;;-0.50;99.90;;;;;;5092484;28;20026;-74
2024/01/17 08:09:53;;;;;;;17.17;8.60;;;-0.50;99.90;;;;;;5092927;28;20119;-74
2024/01/17 08:12:19;;;;;;;18.67;8.87;;;-0.50;99.90;;;;;;5092838;28;20026;-75
2024/01/17 08:14:45;;;;;;;19.80;9.37;;;-0.40;99.90;;;;;;5074840;28;20020;-74
2024/01/17 08:17:11;;;;;;;15.27;8.23;;;-0.40;99.90;;;;;;5074446;28;20436;-74
2024/01/17 08:19:37;;;;;;;21.67;9.23;;;-0.40;99.90;;;;;;5074743;28;20368;-75
2024/01/17 08:22:04;;;;;;;16.87;8.97;;;-0.40;99.90;;;;;;5074260;28;20060;-75
2024/01/17 08:24:30;;;;;;;21.60;8.70;;;-0.40;99.90;;;;;;5092889;28;20465;-75
2024/01/17 08:26:56;;;;;;;16.87;9.17;;;-0.50;99.90;;;;;;5074512;28;20043;-74
2024/01/17 08:29:22;;;;;;;16.77;8.80;;;-0.50;99.90;;;;;;5066364;28;20040;-75
2024/01/17 08:31:48;;;;;;;20.77;9.07;;;-0.50;99.90;;;;;;5092842;28;20071;-75
2024/01/17 08:34:14;;;;;;;18.03;9.60;;;-0.40;99.90;;;;;;5074196;28;20369;-75
2024/01/17 08:36:40;;;;;;;20.07;10.03;;;-0.40;99.90;;;;;;5074588;28;20345;-75
2024/01/17 08:39:06;;;;;;;18.03;9.13;;;-0.40;99.90;;;;;;5074099;28;20024;-75
2024/01/17 08:41:33;;;;;;;20.97;9.83;;;-0.40;99.90;;;;;;5092631;28;20123;-76
2024/01/17 08:44:02;;;;;;;20.97;9.47;;;-0.30;99.90;;;;;;5092095;28;20099;-79
2024/01/17 08:46:28;;;;;;;21.63;8.77;;;-0.30;99.90;;;;;;5092632;28;20337;-76
2024/01/17 08:48:54;;;;;;;19.30;9.73;;;-0.30;99.90;;;;;;5074788;28;20170;-76
2024/01/17 08:51:24;;;;;;;20.30;10.07;;;-0.30;99.90;;;;;;5092154;28;20024;-75
2024/01/17 08:53:50;;;;;;;16.57;9.97;;;-0.30;99.90;;;;;;5092419;28;20078;-76
2024/01/17 08:56:16;;;;;;;21.77;9.83;;;-0.20;99.90;;;;;;5074033;28;20103;-76
2024/01/17 08:58:45;;;;;;;19.23;9.83;;;-0.20;99.90;;;;;;5074612;28;20059;-76
2024/01/17 09:01:10;;;;;;;20.97;10.00;;;-0.20;99.90;;;;;;5074169;28;20116;-76
2024/01/17 09:03:36;;;;;;;19.93;10.87;;;-0.10;99.90;;;;;;5074616;28;20107;-76
2024/01/17 09:06:02;;;;;;;17.17;9.00;;;-0.10;99.90;;;;;;5076916;28;20020;-76
2024/01/17 09:08:28;;;;;;;17.30;8.63;;;-0.10;99.90;;;;;;5096316;28;20035;-77
2024/01/17 09:10:54;;;;;;;24.17;11.70;;;-0.10;99.90;;;;;;5078125;28;20059;-76
2024/01/17 09:13:20;;;;;;;20.23;9.63;;;-0.10;99.90;;;;;;5095682;28;20031;-77
2024/01/17 09:15:45;;;;;;;21.20;10.53;;;-0.10;99.90;;;;;;5096446;28;20016;-77
2024/01/17 09:18:11;;;;;;;18.07;9.30;;;-0.10;99.90;;;;;;5077669;28;20028;-77
2024/01/17 09:20:37;;;;;;;19.30;9.10;;;0.00;99.90;;;;;;5078407;28;20031;-77
2024/01/17 09:23:03;;;;;;;20.13;10.77;;;0.00;99.90;;;;;;5077717;28;20368;-77
2024/01/17 09:25:28;;;;;;;20.03;9.60;;;0.00;99.90;;;;;;5096078;28;20024;-76
2024/01/17 09:27:54;;;;;;;23.67;9.73;;;0.00;99.90;;;;;;5096073;28;20108;-76
2024/01/17 09:30:20;;;;;;;21.10;9.83;;;0.00;99.90;;;;;;5077220;28;20380;-75
2024/01/17 09:32:47;;;;;;;17.80;10.00;;;0.00;99.90;;;;;;5077855;28;20111;-75
2024/01/17 09:35:13;;;;;;;19.47;10.13;;;0.00;99.90;;;;;;5077216;28;20360;-75
2024/01/17 09:37:39;;;;;;;20.27;10.37;;;0.10;99.90;;;;;;5077738;28;20027;-75
2024/01/17 09:40:06;;;;;;;23.93;11.10;;;0.10;99.90;;;;;;5095051;28;20024;-76
2024/01/17 09:42:33;;;;;;;22.50;10.37;;;0.10;99.90;;;;;;5082267;28;20075;-76
2024/01/17 09:44:59;;;;;;;24.03;10.73;;;0.10;99.90;;;;;;5076678;28;20024;-75
2024/01/17 09:47:26;;;;;;;27.27;11.63;;;0.10;99.90;;;;;;5093512;28;20051;-75
2024/01/17 09:49:52;;;;;;;23.20;10.53;;;0.10;99.90;;;;;;5076493;28;20027;-79
2024/01/17 09:52:22;;;;;;;23.67;10.77;;;0.00;99.90;;;;;;5076228;28;20416;-75
2024/01/17 09:54:50;;;;;;;19.73;10.63;;;0.10;99.90;;;;;;5076612;28;20047;-76
2024/01/17 09:57:23;;;;;;;23.47;10.83;;;0.10;99.90;;;;;;5075816;28;20024;-76
2024/01/17 09:59:52;;;;;;;17.80;9.87;;;0.20;99.90;;;;;;5076401;28;20028;-76
2024/01/17 10:02:19;;;;;;;22.40;11.60;;;0.20;99.90;;;;;;5091399;28;20035;-74
2024/01/17 10:04:47;;;;;;;18.60;10.13;;;0.20;99.90;;;;;;5077005;28;20024;-76
2024/01/17 10:07:12;;;;;;;21.83;10.73;;;0.20;99.90;;;;;;5077793;28;20103;-75
2024/01/17 10:09:38;;;;;;;21.23;10.93;;;0.30;99.90;;;;;;5077486;28;20131;-75
2024/01/17 10:12:05;;;;;;;21.50;9.73;;;0.30;99.90;;;;;;5068155;28;20043;-78
2024/01/17 10:14:31;;;;;;;22.77;10.60;;;0.40;99.90;;;;;;5076921;28;20020;-77
2024/01/17 10:16:57;;;;;;;20.13;10.43;;;0.30;99.90;;;;;;5076620;28;20039;-78
2024/01/17 10:19:24;;;;;;;18.80;10.10;;;0.40;99.90;;;;;;5094875;28;20028;-79
2024/01/17 10:21:50;;;;;;;21.17;10.93;;;0.40;99.90;;;;;;5077157;28;20024;-77
2024/01/17 10:24:15;;;;;;;22.17;10.50;;;0.50;99.90;;;;;;5076979;28;20031;-79
2024/01/17 10:26:42;;;;;;;19.53;11.00;;;0.50;99.90;;;;;;5077458;28;20024;-79
2024/01/17 10:29:10;;;;;;;19.30;10.80;;;0.50;99.90;;;;;;5095183;28;20069;-79
2024/01/17 10:31:40;;;;;;;18.37;10.10;;;0.50;99.90;;;;;;5095526;28;20020;-79
2024/01/17 10:34:07;;;;;;;21.63;10.60;;;0.60;99.90;;;;;;5076827;28;20046;-79
2024/01/17 10:36:34;;;;;;;19.40;10.30;;;0.50;99.90;;;;;;5076813;28;20023;-78
2024/01/17 10:39:03;;;;;;;16.57;9.23;;;0.50;99.90;;;;;;5076976;28;20074;-78
2024/01/17 10:41:29;;;;;;;17.67;9.87;;;0.50;99.90;;;;;;5094199;28;20127;-79
2024/01/17 10:43:56;;;;;;;19.57;10.60;;;0.50;99.90;;;;;;5080607;28;20445;-79
2024/01/17 10:46:23;;;;;;;21.07;10.63;;;0.40;99.90;;;;;;5057123;28;20021;-80
2024/01/17 10:48:49;;;;;;;21.03;10.93;;;0.40;99.90;;;;;;5089876;28;20084;-78
2024/01/17 10:51:23;;;;;;;20.67;10.53;;;0.30;99.90;;;;;;5064040;28;20016;-77
2024/01/17 10:53:50;;;;;;;21.90;10.60;;;0.40;99.90;;;;;;5081252;28;20031;-78
2024/01/17 10:56:19;;;;;;;20.60;10.20;;;0.40;99.90;;;;;;5071971;28;20020;-80
2024/01/17 10:58:55;;;;;;;18.10;10.43;;;0.40;99.90;;;;;;5060258;28;20035;-78
2024/01/17 11:01:37;;;;;;;19.47;10.40;;;0.50;99.90;;;;;;5066642;28;20029;-79
2024/01/17 11:04:10;;;;;;;;;;;0.40;99.90;;;;;;5061599;28;20071;-92
2024/01/17 11:06:36;;;;;;;17.97;9.47;;;0.40;99.90;;;;;;5069350;28;20412;-78
2024/01/17 11:09:04;;;;;;;19.77;9.67;;;0.50;99.90;;;;;;5069392;28;20028;-77
2024/01/17 11:11:30;;;;;;;17.23;9.43;;;0.40;99.90;;;;;;5055455;28;20029;-78
2024/01/17 11:13:57;;;;;;;19.83;10.00;;;0.40;99.90;;;;;;5069842;28;20488;-79
2024/01/17 11:16:23;;;;;;;20.13;10.73;;;0.40;99.90;;;;;;5058651;28;20032;-78
2024/01/17 11:18:50;;;;;;;16.50;9.73;;;0.40;99.90;;;;;;5070813;28;20027;-78
2024/01/17 11:21:19;;;;;;;17.07;9.60;;;0.40;99.90;;;;;;5063311;28;20111;-77
2024/01/17 11:23:53;;;;;;;16.67;9.70;;;0.50;99.90;;;;;;5081117;28;20016;-77
2024/01/17 11:26:32;;;;;;;17.83;10.60;;;0.50;99.90;;;;;;5071344;28;20127;-78
2024/01/17 11:29:10;;;;;;;18.67;10.13;;;0.50;99.90;;;;;;5078925;28;20036;-77
2024/01/17 11:31:40;;;;;;;18.80;9.87;;;0.50;99.90;;;;;;5063448;28;20023;-77
2024/01/17 11:34:07;;;;;;;17.20;9.97;;;0.60;99.90;;;;;;5060010;28;20028;-78
2024/01/17 11:36:45;;;;;;;19.07;10.33;;;0.60;99.90;;;;;;5070498;28;20119;-77
2024/01/17 11:39:14;;;;;;;19.13;10.27;;;0.50;99.90;;;;;;5062294;28;20055;-77
2024/01/17 11:41:42;;;;;;;18.63;10.50;;;0.60;99.90;;;;;;5072037;28;20071;-78
2024/01/17 11:44:09;;;;;;;16.87;9.90;;;0.50;99.90;;;;;;5107453;28;20015;-77
2024/01/17 11:46:35;;;;;;;18.27;10.30;;;0.60;99.90;;;;;;5113479;28;20098;-77
2024/01/17 11:49:03;;;;;;;19.73;10.30;;;0.60;99.90;;;;;;5113436;28;20023;-77
2024/01/17 11:51:31;;;;;;;17.30;9.77;;;0.70;99.90;;;;;;5101988;28;20028;-78
2024/01/17 11:53:57;;;;;;;18.03;10.70;;;0.60;99.90;;;;;;5112432;28;20513;-78
2024/01/17 11:56:26;;;;;;;18.40;10.07;;;0.70;99.90;;;;;;5112041;28;20375;-79
2024/01/17 11:58:57;;;;;;;22.00;10.23;;;0.60;99.90;;;;;;5095529;28;20384;-78
2024/01/17 12:01:22;;;;;;;18.23;9.93;;;0.70;99.90;;;;;;5113340;28;20024;-77
2024/01/17 12:03:51;;;;;;;17.10;9.80;;;0.70;99.90;;;;;;5110826;28;20038;-78
2024/01/17 12:06:18;;;;;;;16.77;9.53;;;0.70;99.90;;;;;;5103080;28;20135;-78
2024/01/17 12:08:44;;;;;;;16.97;9.47;;;0.70;99.90;;;;;;5111048;28;20035;-77
2024/01/17 12:11:10;;;;;;;14.40;8.40;;;0.80;99.90;;;;;;5098894;28;20103;-76
2024/01/17 12:13:37;;;;;;;16.00;9.67;;;0.80;99.90;;;;;;5103504;28;20047;-78
2024/01/17 12:16:04;;;;;;;16.80;9.37;;;0.80;99.90;;;;;;5112736;28;20096;-78
2024/01/17 12:18:31;;;;;;;17.00;8.93;;;0.80;99.90;;;;;;5096270;28;20030;-77
2024/01/17 12:21:02;;;;;;;16.80;9.20;;;0.80;99.90;;;;;;5109188;28;20019;-79
2024/01/17 12:23:30;;;;;;;16.80;9.33;;;0.80;99.90;;;;;;5101568;28;20077;-82
2024/01/17 12:25:56;;;;;;;13.50;8.27;;;0.80;99.90;;;;;;5113876;28;20107;-79
2024/01/17 12:28:28;;;;;;;18.90;9.63;;;0.90;99.90;;;;;;5108382;28;20052;-78
2024/01/17 12:31:02;;;;;;;16.23;9.40;;;0.90;99.90;;;;;;5095343;28;20020;-77
2024/01/17 12:33:30;;;;;;;17.67;9.33;;;1.00;99.90;;;;;;5100919;28;20115;-78